AFR239 KMCO-GOBD
Flight info
| Callsign | AFR239 |
|---|---|
| Flight time | N/A |
| Altitude | 35000 |
| Route | MZULO3 LENDS M203 SNAGY 2960N 2957N 2950N 2945N 2842N 2740N 2434N ULTEM UR976 LUMPO R976 LIGOV |
| Aircraft | B77W/H-SDE1E2E3FGHIJ2J3J4J5M1RWXY/LB1D1 |
Departure
| Time | 2026-04-25 14:09 |
|---|---|
| Airport | Orlando International Airport (KMCO) |
Arrival
| Time | N/A |
|---|---|
| Airport | Blaise Diagne International Airport (GOBD) |
| Time | Latitude | Longitude | Altitude | Speed | Heading |
|---|---|---|---|---|---|
| 2026-04-25 13:00 | 28.43470 | -81.31280 | 99 ft | 0 kts | 324° |
| 2026-04-25 13:36 | 28.43470 | -81.31279 | 99 ft | 0 kts | 324° |
| 2026-04-25 13:37 | 28.43470 | -81.31280 | 99 ft | 0 kts | 324° |
| 2026-04-25 13:37 | 28.43470 | -81.31279 | 99 ft | 0 kts | 324° |
| 2026-04-25 13:44 | 28.43461 | -81.31272 | 100 ft | 2 kts | 334° |
| 2026-04-25 13:45 | 28.43451 | -81.31267 | 100 ft | 2 kts | 343° |
| 2026-04-25 13:45 | 28.43429 | -81.31267 | 97 ft | 2 kts | 34° |
| 2026-04-25 13:45 | 28.43418 | -81.31279 | 98 ft | 1 kts | 55° |
| 2026-04-25 13:45 | 28.43417 | -81.31281 | 97 ft | 0 kts | 56° |
| 2026-04-25 13:51 | 28.43433 | -81.31253 | 97 ft | 13 kts | 56° |
| 2026-04-25 13:52 | 28.43498 | -81.31165 | 101 ft | 16 kts | 33° |
| 2026-04-25 13:52 | 28.43597 | -81.31137 | 100 ft | 13 kts | 346° |
| 2026-04-25 13:52 | 28.43683 | -81.31188 | 101 ft | 15 kts | 329° |
| 2026-04-25 13:52 | 28.43762 | -81.31265 | 105 ft | 15 kts | 302° |
| 2026-04-25 13:53 | 28.43807 | -81.31375 | 107 ft | 15 kts | 290° |
| 2026-04-25 13:53 | 28.43847 | -81.31449 | 109 ft | 0 kts | 342° |
| 2026-04-25 13:55 | 28.43871 | -81.31453 | 110 ft | 11 kts | 359° |
| 2026-04-25 13:56 | 28.43926 | -81.31332 | 109 ft | 27 kts | 84° |
| 2026-04-25 13:56 | 28.43938 | -81.31047 | 111 ft | 45 kts | 93° |
| 2026-04-25 13:56 | 28.43931 | -81.30689 | 113 ft | 44 kts | 94° |
| 2026-04-25 13:56 | 28.43916 | -81.30437 | 110 ft | 27 kts | 94° |
| 2026-04-25 13:57 | 28.43909 | -81.30283 | 108 ft | 0 kts | 92° |
| 2026-04-25 13:58 | 28.43909 | -81.30281 | 108 ft | 3 kts | 92° |
| 2026-04-25 13:58 | 28.43903 | -81.30146 | 105 ft | 13 kts | 93° |
| 2026-04-25 13:59 | 28.43899 | -81.30068 | 106 ft | 24 kts | 94° |
| 2026-04-25 13:59 | 28.43860 | -81.29923 | 102 ft | 31 kts | 121° |
| 2026-04-25 13:59 | 28.43768 | -81.29829 | 102 ft | 0 kts | 155° |
| 2026-04-25 14:03 | 28.43767 | -81.29829 | 102 ft | 1 kts | 155° |
| 2026-04-25 14:03 | 28.43710 | -81.29810 | 101 ft | 17 kts | 171° |
| 2026-04-25 14:04 | 28.43679 | -81.29807 | 99 ft | 5 kts | 176° |
| 2026-04-25 14:04 | 28.43589 | -81.29803 | 100 ft | 13 kts | 171° |
| 2026-04-25 14:04 | 28.43553 | -81.29764 | 103 ft | 4 kts | 96° |
| 2026-04-25 14:04 | 28.43551 | -81.29731 | 102 ft | 4 kts | 94° |
| 2026-04-25 14:05 | 28.43551 | -81.29722 | 102 ft | 0 kts | 91° |
| 2026-04-25 14:06 | 28.43551 | -81.29716 | 102 ft | 6 kts | 91° |
| 2026-04-25 14:06 | 28.43512 | -81.29596 | 103 ft | 19 kts | 153° |
| 2026-04-25 14:06 | 28.43472 | -81.29588 | 103 ft | 17 kts | 174° |
| 2026-04-25 14:06 | 28.43457 | -81.29588 | 104 ft | 0 kts | 178° |
| 2026-04-25 14:08 | 28.43335 | -81.29585 | 105 ft | 55 kts | 179° |
| 2026-04-25 14:08 | 28.42676 | -81.29578 | 102 ft | 133 kts | 179° |
| 2026-04-25 14:08 | 28.41511 | -81.29564 | 104 ft | 197 kts | 179° |
| 2026-04-25 14:08 | 28.40029 | -81.29545 | 398 ft | 218 kts | 179° |
| 2026-04-25 14:09 | 28.38500 | -81.29449 | 1057 ft | 225 kts | 165° |
| 2026-04-25 14:09 | 28.37107 | -81.28559 | 1691 ft | 238 kts | 145° |
| 2026-04-25 14:09 | 28.35719 | -81.27484 | 2453 ft | 242 kts | 147° |
| 2026-04-25 14:09 | 28.34790 | -81.26769 | 2824 ft | 246 kts | 142° |
| 2026-04-25 14:10 | 28.33610 | -81.24492 | 3216 ft | 267 kts | 94° |
| 2026-04-25 14:10 | 28.33947 | -81.22421 | 3753 ft | 271 kts | 66° |
| 2026-04-25 14:10 | 28.34700 | -81.20431 | 4302 ft | 278 kts | 67° |
| 2026-04-25 14:10 | 28.35437 | -81.18396 | 5037 ft | 279 kts | 68° |
| 2026-04-25 14:11 | 28.36166 | -81.16344 | 5754 ft | 281 kts | 68° |
| 2026-04-25 14:11 | 28.36896 | -81.14264 | 6457 ft | 283 kts | 68° |
| 2026-04-25 14:11 | 28.37619 | -81.12181 | 7057 ft | 288 kts | 68° |
| 2026-04-25 14:11 | 28.38354 | -81.10046 | 7639 ft | 292 kts | 68° |
| 2026-04-25 14:12 | 28.39093 | -81.07889 | 8272 ft | 295 kts | 68° |
| 2026-04-25 14:12 | 28.39840 | -81.05695 | 8896 ft | 299 kts | 68° |
| 2026-04-25 14:12 | 28.40592 | -81.03482 | 9504 ft | 302 kts | 68° |
| 2026-04-25 14:12 | 28.41353 | -81.01239 | 10108 ft | 305 kts | 67° |
| 2026-04-25 14:13 | 28.42123 | -80.98967 | 10623 ft | 311 kts | 67° |
| 2026-04-25 14:13 | 28.42905 | -80.96653 | 11168 ft | 316 kts | 67° |
| 2026-04-25 14:13 | 28.43685 | -80.94345 | 11791 ft | 318 kts | 67° |
| 2026-04-25 14:13 | 28.44480 | -80.91989 | 12458 ft | 322 kts | 67° |
| 2026-04-25 14:14 | 28.45302 | -80.89558 | 12776 ft | 340 kts | 67° |
| 2026-04-25 14:14 | 28.46175 | -80.86976 | 12946 ft | 361 kts | 67° |
| 2026-04-25 14:14 | 28.47091 | -80.84223 | 13113 ft | 383 kts | 69° |
| 2026-04-25 14:14 | 28.47816 | -80.81254 | 13520 ft | 397 kts | 77° |
| 2026-04-25 14:15 | 28.48243 | -80.78103 | 14038 ft | 406 kts | 81° |
| 2026-04-25 14:15 | 28.48362 | -80.77027 | 14221 ft | 409 kts | 82° |
| 2026-04-25 14:15 | 28.48926 | -80.71639 | 15293 ft | 416 kts | 82° |
| 2026-04-25 14:15 | 28.49269 | -80.68361 | 15967 ft | 420 kts | 82° |
| 2026-04-25 14:16 | 28.49623 | -80.65055 | 16550 ft | 424 kts | 81° |
| 2026-04-25 14:16 | 28.49987 | -80.61701 | 17160 ft | 430 kts | 81° |
| 2026-04-25 14:16 | 28.50359 | -80.58310 | 17762 ft | 435 kts | 81° |
| 2026-04-25 14:16 | 28.50736 | -80.54886 | 18346 ft | 439 kts | 81° |
| 2026-04-25 14:17 | 28.51118 | -80.51423 | 18904 ft | 443 kts | 81° |
| 2026-04-25 14:17 | 28.51501 | -80.47929 | 19494 ft | 446 kts | 81° |
| 2026-04-25 14:17 | 28.51885 | -80.44426 | 20086 ft | 448 kts | 81° |
| 2026-04-25 14:17 | 28.52271 | -80.40892 | 20660 ft | 451 kts | 81° |
| 2026-04-25 14:18 | 28.52654 | -80.37380 | 21216 ft | 455 kts | 81° |
| 2026-04-25 14:18 | 28.53049 | -80.33751 | 21756 ft | 458 kts | 81° |
| 2026-04-25 14:18 | 28.53611 | -80.30180 | 22290 ft | 460 kts | 74° |
| 2026-04-25 14:18 | 28.54473 | -80.26722 | 22811 ft | 461 kts | 69° |
| 2026-04-25 14:19 | 28.55656 | -80.23328 | 23356 ft | 462 kts | 64° |
| 2026-04-25 14:19 | 28.56949 | -80.19972 | 23817 ft | 465 kts | 64° |
| 2026-04-25 14:19 | 28.58260 | -80.16601 | 24267 ft | 467 kts | 64° |
| 2026-04-25 14:19 | 28.59572 | -80.13215 | 24751 ft | 468 kts | 64° |
| 2026-04-25 14:20 | 28.60881 | -80.09808 | 25219 ft | 470 kts | 64° |
| 2026-04-25 14:20 | 28.61321 | -80.08655 | 25384 ft | 471 kts | 65° |
| 2026-04-25 14:20 | 28.63488 | -80.02948 | 26099 ft | 475 kts | 65° |
| 2026-04-25 14:20 | 28.64796 | -79.99481 | 26516 ft | 477 kts | 65° |
| 2026-04-25 14:21 | 28.66107 | -79.96003 | 26933 ft | 479 kts | 65° |
| 2026-04-25 14:21 | 28.67422 | -79.92511 | 27321 ft | 481 kts | 65° |
| 2026-04-25 14:21 | 28.68744 | -79.88995 | 27719 ft | 483 kts | 65° |
| 2026-04-25 14:21 | 28.70069 | -79.85472 | 28086 ft | 486 kts | 65° |
| 2026-04-25 14:22 | 28.71401 | -79.81927 | 28449 ft | 488 kts | 65° |
| 2026-04-25 14:22 | 28.72738 | -79.78366 | 28793 ft | 490 kts | 65° |
| 2026-04-25 14:22 | 28.74078 | -79.74794 | 29142 ft | 491 kts | 65° |
| 2026-04-25 14:22 | 28.75420 | -79.71210 | 29524 ft | 492 kts | 65° |
| 2026-04-25 14:23 | 28.76761 | -79.67627 | 29983 ft | 490 kts | 65° |
| 2026-04-25 14:23 | 28.78095 | -79.64061 | 30412 ft | 488 kts | 65° |
| 2026-04-25 14:23 | 28.79424 | -79.60503 | 30766 ft | 488 kts | 65° |
| 2026-04-25 14:23 | 28.80839 | -79.56992 | 31050 ft | 488 kts | 61° |
| 2026-04-25 14:24 | 28.82522 | -79.53644 | 31350 ft | 486 kts | 55° |
| 2026-04-25 14:24 | 28.84471 | -79.50498 | 31656 ft | 485 kts | 52° |
| 2026-04-25 14:24 | 28.86434 | -79.47429 | 31959 ft | 485 kts | 52° |
| 2026-04-25 14:24 | 28.88426 | -79.44325 | 32272 ft | 484 kts | 52° |
| 2026-04-25 14:25 | 28.90409 | -79.41217 | 32585 ft | 484 kts | 52° |
| 2026-04-25 14:25 | 28.92384 | -79.38101 | 32878 ft | 484 kts | 52° |
| 2026-04-25 14:25 | 28.94352 | -79.34975 | 33103 ft | 485 kts | 53° |
| 2026-04-25 14:26 | 28.98300 | -79.28676 | 33367 ft | 491 kts | 53° |
| 2026-04-25 14:26 | 29.00286 | -79.25497 | 33526 ft | 492 kts | 53° |
| 2026-04-25 14:26 | 29.02278 | -79.22307 | 33700 ft | 494 kts | 53° |
| 2026-04-25 14:26 | 29.04277 | -79.19105 | 33836 ft | 495 kts | 53° |
| 2026-04-25 14:27 | 29.06280 | -79.15895 | 33975 ft | 497 kts | 53° |
| 2026-04-25 14:27 | 29.08289 | -79.12672 | 34083 ft | 498 kts | 53° |
| 2026-04-25 14:27 | 29.10279 | -79.09480 | 34208 ft | 499 kts | 53° |
| 2026-04-25 14:27 | 29.12294 | -79.06243 | 34336 ft | 500 kts | 53° |
| 2026-04-25 14:28 | 29.14313 | -79.02997 | 34454 ft | 501 kts | 53° |
| 2026-04-25 14:28 | 29.18349 | -78.96503 | 34655 ft | 502 kts | 53° |
| 2026-04-25 14:29 | 29.22406 | -78.89964 | 34830 ft | 504 kts | 53° |
| 2026-04-25 14:29 | 29.26467 | -78.83408 | 35003 ft | 505 kts | 53° |
| 2026-04-25 14:30 | 29.30537 | -78.76826 | 35158 ft | 506 kts | 53° |
| 2026-04-25 14:30 | 29.34591 | -78.70202 | 35290 ft | 508 kts | 56° |
| 2026-04-25 14:30 | 29.36362 | -78.66686 | 35338 ft | 511 kts | 61° |
| 2026-04-25 14:31 | 29.39059 | -78.59128 | 35453 ft | 514 kts | 70° |
| 2026-04-25 14:31 | 29.40689 | -78.51126 | 35540 ft | 518 kts | 81° |
| 2026-04-25 14:32 | 29.41662 | -78.42928 | 35624 ft | 519 kts | 80° |
| 2026-04-25 14:32 | 29.42661 | -78.34779 | 35714 ft | 520 kts | 80° |
| 2026-04-25 14:33 | 29.43700 | -78.26557 | 35791 ft | 521 kts | 80° |
| 2026-04-25 14:33 | 29.44742 | -78.18334 | 35868 ft | 521 kts | 80° |
| 2026-04-25 14:34 | 29.45779 | -78.10098 | 35938 ft | 522 kts | 80° |
| 2026-04-25 14:34 | 29.46635 | -78.03242 | 35991 ft | 522 kts | 80° |
| 2026-04-25 14:35 | 29.47663 | -77.94975 | 36040 ft | 523 kts | 80° |
| 2026-04-25 14:35 | 29.48685 | -77.86713 | 36095 ft | 523 kts | 80° |
| 2026-04-25 14:36 | 29.49705 | -77.78433 | 36143 ft | 524 kts | 81° |
| 2026-04-25 14:36 | 29.50720 | -77.70148 | 36186 ft | 524 kts | 81° |
| 2026-04-25 14:37 | 29.51732 | -77.61856 | 36223 ft | 524 kts | 81° |
| 2026-04-25 14:37 | 29.52740 | -77.53554 | 36252 ft | 525 kts | 81° |
| 2026-04-25 14:38 | 29.53744 | -77.45254 | 36292 ft | 525 kts | 81° |
| 2026-04-25 14:38 | 29.54742 | -77.36945 | 36320 ft | 525 kts | 81° |
| 2026-04-25 14:39 | 29.55729 | -77.28687 | 36347 ft | 525 kts | 81° |
| 2026-04-25 14:39 | 29.56718 | -77.20369 | 36371 ft | 526 kts | 81° |
| 2026-04-25 14:40 | 29.57701 | -77.12055 | 36408 ft | 526 kts | 81° |
| 2026-04-25 14:40 | 29.58679 | -77.03734 | 36425 ft | 526 kts | 81° |
| 2026-04-25 14:41 | 29.59652 | -76.95414 | 36442 ft | 526 kts | 81° |
| 2026-04-25 14:41 | 29.60614 | -76.87070 | 36464 ft | 526 kts | 83° |
| 2026-04-25 14:42 | 29.60973 | -76.80098 | 36474 ft | 526 kts | 87° |
| 2026-04-25 14:42 | 29.61180 | -76.70259 | 36501 ft | 527 kts | 88° |
| 2026-04-25 14:43 | 29.61353 | -76.61854 | 36514 ft | 527 kts | 88° |
| 2026-04-25 14:43 | 29.61553 | -76.53445 | 36529 ft | 527 kts | 88° |
| 2026-04-25 14:44 | 29.61762 | -76.45030 | 36556 ft | 526 kts | 88° |
| 2026-04-25 14:44 | 29.61968 | -76.36608 | 36577 ft | 526 kts | 88° |
| 2026-04-25 14:45 | 29.62164 | -76.28254 | 36590 ft | 526 kts | 88° |
| 2026-04-25 14:45 | 29.62355 | -76.19839 | 36610 ft | 526 kts | 88° |
| 2026-04-25 14:46 | 29.62540 | -76.11434 | 36625 ft | 526 kts | 88° |
| 2026-04-25 14:46 | 29.62720 | -76.03034 | 36648 ft | 526 kts | 88° |
| 2026-04-25 14:47 | 29.62866 | -75.96002 | 36671 ft | 525 kts | 88° |
| 2026-04-25 14:47 | 29.63063 | -75.86251 | 36691 ft | 525 kts | 88° |
| 2026-04-25 14:48 | 29.63227 | -75.77859 | 36709 ft | 525 kts | 89° |
| 2026-04-25 14:48 | 29.63386 | -75.69473 | 36726 ft | 524 kts | 89° |
| 2026-04-25 14:49 | 29.63539 | -75.61096 | 36742 ft | 524 kts | 89° |
| 2026-04-25 14:49 | 29.63687 | -75.52717 | 36754 ft | 524 kts | 89° |
| 2026-04-25 14:50 | 29.63829 | -75.44347 | 36766 ft | 524 kts | 89° |
| 2026-04-25 14:50 | 29.63966 | -75.36019 | 37053 ft | 517 kts | 89° |
| 2026-04-25 14:51 | 29.64096 | -75.27743 | 37043 ft | 518 kts | 89° |
| 2026-04-25 14:51 | 29.64222 | -75.19461 | 37025 ft | 519 kts | 89° |
| 2026-04-25 14:52 | 29.64342 | -75.11164 | 37040 ft | 519 kts | 89° |
| 2026-04-25 14:52 | 29.64439 | -75.04254 | 37054 ft | 519 kts | 89° |
| 2026-04-25 14:53 | 29.64567 | -74.94607 | 37078 ft | 519 kts | 89° |
| 2026-04-25 14:53 | 29.64672 | -74.86323 | 37087 ft | 518 kts | 89° |
| 2026-04-25 14:54 | 29.64772 | -74.78025 | 37025 ft | 520 kts | 89° |
| 2026-04-25 14:54 | 29.64867 | -74.69718 | 37029 ft | 520 kts | 90° |
| 2026-04-25 14:55 | 29.64956 | -74.61411 | 37027 ft | 520 kts | 90° |
| 2026-04-25 14:55 | 29.65041 | -74.53101 | 37027 ft | 520 kts | 90° |
| 2026-04-25 14:56 | 29.65120 | -74.44788 | 37027 ft | 520 kts | 90° |
| 2026-04-25 14:56 | 29.65194 | -74.36485 | 37027 ft | 520 kts | 90° |
| 2026-04-25 14:57 | 29.65263 | -74.28177 | 37028 ft | 520 kts | 90° |
| 2026-04-25 14:57 | 29.65327 | -74.19871 | 37030 ft | 520 kts | 90° |
| 2026-04-25 14:58 | 29.65385 | -74.11564 | 37026 ft | 520 kts | 90° |
| 2026-04-25 14:58 | 29.65439 | -74.03307 | 37028 ft | 520 kts | 90° |
| 2026-04-25 14:59 | 29.65487 | -73.95000 | 37029 ft | 520 kts | 90° |
| 2026-04-25 14:59 | 29.65530 | -73.86686 | 37034 ft | 520 kts | 90° |
| 2026-04-25 15:00 | 29.65568 | -73.78377 | 37032 ft | 520 kts | 90° |
| 2026-04-25 15:00 | 29.65600 | -73.70065 | 37033 ft | 520 kts | 90° |
| 2026-04-25 15:01 | 29.65628 | -73.61754 | 37035 ft | 520 kts | 90° |
| 2026-04-25 15:01 | 29.65650 | -73.53431 | 37035 ft | 520 kts | 90° |
| 2026-04-25 15:02 | 29.65667 | -73.45114 | 37033 ft | 520 kts | 90° |
| 2026-04-25 15:02 | 29.65679 | -73.36789 | 37035 ft | 521 kts | 90° |
| 2026-04-25 15:03 | 29.65686 | -73.28467 | 37033 ft | 521 kts | 90° |
| 2026-04-25 15:03 | 29.65688 | -73.20150 | 37034 ft | 521 kts | 90° |
| 2026-04-25 15:04 | 29.65684 | -73.11806 | 37035 ft | 521 kts | 91° |
| 2026-04-25 15:04 | 29.65675 | -73.03475 | 37031 ft | 521 kts | 91° |
| 2026-04-25 15:05 | 29.65661 | -72.95129 | 37040 ft | 522 kts | 91° |
| 2026-04-25 15:06 | 29.65630 | -72.82619 | 37043 ft | 522 kts | 91° |
| 2026-04-25 15:06 | 29.65603 | -72.74263 | 37040 ft | 522 kts | 91° |
| 2026-04-25 15:07 | 29.65571 | -72.65911 | 37038 ft | 523 kts | 91° |
| 2026-04-25 15:07 | 29.65533 | -72.57561 | 37040 ft | 523 kts | 91° |
| 2026-04-25 15:08 | 29.65490 | -72.49203 | 37039 ft | 523 kts | 91° |
| 2026-04-25 15:08 | 29.65442 | -72.40836 | 37044 ft | 523 kts | 91° |
| 2026-04-25 15:09 | 29.65389 | -72.32476 | 37044 ft | 523 kts | 91° |
| 2026-04-25 15:09 | 29.65299 | -72.19974 | 37043 ft | 524 kts | 91° |
| 2026-04-25 15:10 | 29.65232 | -72.11605 | 37045 ft | 524 kts | 91° |
| 2026-04-25 15:11 | 29.65123 | -71.99042 | 37042 ft | 524 kts | 91° |
| 2026-04-25 15:11 | 29.65043 | -71.90662 | 37042 ft | 524 kts | 91° |
| 2026-04-25 15:12 | 29.64913 | -71.78080 | 37044 ft | 525 kts | 91° |
| 2026-04-25 15:12 | 29.64851 | -71.72467 | 37039 ft | 525 kts | 91° |
| 2026-04-25 15:13 | 29.64670 | -71.57103 | 37044 ft | 525 kts | 91° |
| 2026-04-25 15:14 | 29.64564 | -71.48701 | 37044 ft | 525 kts | 91° |
| 2026-04-25 15:14 | 29.64452 | -71.40298 | 37045 ft | 526 kts | 91° |
| 2026-04-25 15:15 | 29.64335 | -71.31896 | 37043 ft | 526 kts | 91° |
| 2026-04-25 15:15 | 29.64212 | -71.23491 | 37042 ft | 526 kts | 91° |
| 2026-04-25 15:16 | 29.64085 | -71.15076 | 37044 ft | 526 kts | 91° |
| 2026-04-25 15:16 | 29.63884 | -71.02502 | 37032 ft | 522 kts | 91° |
| 2026-04-25 15:17 | 29.63672 | -70.90008 | 37049 ft | 522 kts | 91° |
| 2026-04-25 15:18 | 29.63524 | -70.81657 | 37048 ft | 523 kts | 91° |
| 2026-04-25 15:18 | 29.63292 | -70.69100 | 37049 ft | 524 kts | 91° |
| 2026-04-25 15:19 | 29.63186 | -70.63553 | 37047 ft | 525 kts | 92° |
| 2026-04-25 15:19 | 29.62964 | -70.52381 | 37050 ft | 526 kts | 92° |
| 2026-04-25 15:20 | 29.62792 | -70.43981 | 37048 ft | 526 kts | 92° |
| 2026-04-25 15:20 | 29.62614 | -70.35573 | 37049 ft | 526 kts | 92° |
| 2026-04-25 15:21 | 29.62431 | -70.27158 | 37046 ft | 527 kts | 92° |
| 2026-04-25 15:21 | 29.62242 | -70.18733 | 37050 ft | 527 kts | 92° |
| 2026-04-25 15:22 | 29.62047 | -70.10312 | 37050 ft | 527 kts | 92° |
| 2026-04-25 15:22 | 29.61882 | -70.03316 | 37051 ft | 527 kts | 92° |
| 2026-04-25 15:23 | 29.61678 | -69.94888 | 37053 ft | 527 kts | 92° |
| 2026-04-25 15:23 | 29.61467 | -69.86411 | 37052 ft | 527 kts | 92° |
| 2026-04-25 15:24 | 29.61254 | -69.78050 | 37053 ft | 527 kts | 92° |
| 2026-04-25 15:24 | 29.61070 | -69.70995 | 37051 ft | 527 kts | 92° |
| 2026-04-25 15:25 | 29.60809 | -69.61209 | 37053 ft | 527 kts | 92° |
| 2026-04-25 15:25 | 29.60578 | -69.52789 | 37055 ft | 527 kts | 92° |
| 2026-04-25 15:26 | 29.60342 | -69.44375 | 37054 ft | 527 kts | 92° |
| 2026-04-25 15:26 | 29.60101 | -69.35948 | 37056 ft | 527 kts | 92° |
| 2026-04-25 15:27 | 29.59855 | -69.27528 | 37053 ft | 528 kts | 92° |
| 2026-04-25 15:28 | 29.59474 | -69.14876 | 37059 ft | 529 kts | 92° |
| 2026-04-25 15:28 | 29.59213 | -69.06426 | 37058 ft | 530 kts | 92° |
| 2026-04-25 15:29 | 29.58946 | -68.97957 | 37055 ft | 531 kts | 92° |
| 2026-04-25 15:29 | 29.58674 | -68.89470 | 37058 ft | 532 kts | 92° |
| 2026-04-25 15:30 | 29.58395 | -68.80973 | 37052 ft | 533 kts | 92° |
| 2026-04-25 15:30 | 29.58111 | -68.72457 | 37054 ft | 534 kts | 92° |
| 2026-04-25 15:31 | 29.57820 | -68.63933 | 37057 ft | 534 kts | 93° |
| 2026-04-25 15:31 | 29.57524 | -68.55396 | 37056 ft | 535 kts | 93° |
| 2026-04-25 15:32 | 29.57222 | -68.46841 | 37058 ft | 536 kts | 93° |
| 2026-04-25 15:32 | 29.56914 | -68.38286 | 37058 ft | 537 kts | 93° |
| 2026-04-25 15:33 | 29.56440 | -68.25413 | 37058 ft | 538 kts | 93° |
| 2026-04-25 15:33 | 29.56118 | -68.16835 | 37057 ft | 538 kts | 93° |
| 2026-04-25 15:34 | 29.55789 | -68.08239 | 37053 ft | 539 kts | 93° |
| 2026-04-25 15:34 | 29.55512 | -68.01092 | 37060 ft | 540 kts | 93° |
| 2026-04-25 15:35 | 29.54943 | -67.86744 | 37055 ft | 541 kts | 94° |
| 2026-04-25 15:36 | 29.54416 | -67.73791 | 37056 ft | 542 kts | 94° |
| 2026-04-25 15:36 | 29.54057 | -67.65131 | 37056 ft | 543 kts | 94° |
| 2026-04-25 15:37 | 29.53692 | -67.56474 | 37059 ft | 543 kts | 94° |
| 2026-04-25 15:37 | 29.53321 | -67.47804 | 37059 ft | 544 kts | 94° |
| 2026-04-25 15:38 | 29.52944 | -67.39116 | 37059 ft | 545 kts | 94° |
| 2026-04-25 15:38 | 29.52560 | -67.30411 | 37057 ft | 546 kts | 94° |
| 2026-04-25 15:39 | 29.52170 | -67.21700 | 37057 ft | 547 kts | 94° |
| 2026-04-25 15:39 | 29.51842 | -67.14453 | 37055 ft | 547 kts | 94° |
| 2026-04-25 15:40 | 29.50993 | -66.96137 | 37057 ft | 549 kts | 95° |
| 2026-04-25 15:41 | 29.50581 | -66.87414 | 37057 ft | 549 kts | 95° |
| 2026-04-25 15:41 | 29.50443 | -66.84525 | 37057 ft | 550 kts | 95° |
| 2026-04-25 15:42 | 29.49804 | -66.71310 | 37059 ft | 550 kts | 95° |
| 2026-04-25 15:42 | 29.49269 | -66.60469 | 37053 ft | 551 kts | 95° |
| 2026-04-25 15:43 | 29.48830 | -66.51674 | 37054 ft | 551 kts | 95° |
| 2026-04-25 15:43 | 29.48385 | -66.42893 | 37056 ft | 551 kts | 95° |
| 2026-04-25 15:44 | 29.47932 | -66.34073 | 37056 ft | 552 kts | 95° |
| 2026-04-25 15:44 | 29.47478 | -66.25347 | 37055 ft | 552 kts | 95° |
| 2026-04-25 15:45 | 29.47015 | -66.16553 | 37054 ft | 552 kts | 95° |
| 2026-04-25 15:45 | 29.46668 | -66.10028 | 37051 ft | 552 kts | 95° |
| 2026-04-25 15:46 | 29.46071 | -65.98957 | 37053 ft | 551 kts | 96° |
| 2026-04-25 15:46 | 29.45594 | -65.90230 | 37052 ft | 551 kts | 96° |
| 2026-04-25 15:47 | 29.45109 | -65.81455 | 37055 ft | 551 kts | 96° |
| 2026-04-25 15:47 | 29.44618 | -65.72675 | 37054 ft | 551 kts | 96° |
| 2026-04-25 15:48 | 29.44121 | -65.63896 | 37053 ft | 551 kts | 96° |
| 2026-04-25 15:48 | 29.43618 | -65.55126 | 37054 ft | 551 kts | 96° |
| 2026-04-25 15:49 | 29.43110 | -65.46350 | 37055 ft | 551 kts | 96° |
| 2026-04-25 15:49 | 29.42596 | -65.37578 | 37055 ft | 551 kts | 96° |
| 2026-04-25 15:50 | 29.42079 | -65.28862 | 37054 ft | 551 kts | 96° |
| 2026-04-25 15:50 | 29.41524 | -65.19596 | 37049 ft | 551 kts | 96° |
| 2026-04-25 15:51 | 29.41112 | -65.12800 | 37096 ft | 551 kts | 96° |
| 2026-04-25 15:51 | 29.40482 | -65.02503 | 37218 ft | 551 kts | 96° |
| 2026-04-25 15:52 | 29.40214 | -64.98153 | 37347 ft | 549 kts | 97° |
| 2026-04-25 15:52 | 29.39947 | -64.93842 | 37473 ft | 547 kts | 97° |
| 2026-04-25 15:52 | 29.39676 | -64.89495 | 37588 ft | 546 kts | 97° |
| 2026-04-25 15:52 | 29.39404 | -64.85161 | 37709 ft | 544 kts | 97° |
| 2026-04-25 15:53 | 29.39132 | -64.80835 | 37838 ft | 543 kts | 97° |
| 2026-04-25 15:53 | 29.38858 | -64.76525 | 37945 ft | 542 kts | 97° |
| 2026-04-25 15:53 | 29.38303 | -64.67845 | 38044 ft | 542 kts | 97° |
| 2026-04-25 15:54 | 29.37748 | -64.59258 | 38049 ft | 545 kts | 98° |
| 2026-04-25 15:54 | 29.37181 | -64.50574 | 38049 ft | 547 kts | 98° |
| 2026-04-25 15:55 | 29.36607 | -64.41857 | 38050 ft | 549 kts | 98° |
| 2026-04-25 15:55 | 29.36026 | -64.33115 | 38048 ft | 551 kts | 98° |
| 2026-04-25 15:56 | 29.35437 | -64.24344 | 38048 ft | 553 kts | 98° |
| 2026-04-25 15:56 | 29.34839 | -64.15529 | 38047 ft | 555 kts | 99° |
| 2026-04-25 15:57 | 29.34234 | -64.06681 | 38049 ft | 557 kts | 99° |
| 2026-04-25 15:57 | 29.33624 | -63.97870 | 38047 ft | 559 kts | 99° |
| 2026-04-25 15:58 | 29.33002 | -63.88960 | 38045 ft | 561 kts | 99° |
| 2026-04-25 15:58 | 29.32372 | -63.80025 | 38043 ft | 563 kts | 100° |
| 2026-04-25 15:59 | 29.31735 | -63.71067 | 38043 ft | 565 kts | 100° |
| 2026-04-25 15:59 | 29.31089 | -63.62070 | 38040 ft | 567 kts | 101° |
| 2026-04-25 16:00 | 29.30651 | -63.56023 | 38039 ft | 568 kts | 101° |
| 2026-04-25 16:00 | 29.29771 | -63.43982 | 38040 ft | 571 kts | 101° |
| 2026-04-25 16:01 | 29.29100 | -63.34909 | 38039 ft | 573 kts | 101° |
| 2026-04-25 16:01 | 29.28422 | -63.25814 | 38040 ft | 574 kts | 102° |
| 2026-04-25 16:02 | 29.27737 | -63.16711 | 38040 ft | 576 kts | 102° |
| 2026-04-25 16:02 | 29.27041 | -63.07551 | 38039 ft | 578 kts | 102° |
| 2026-04-25 16:03 | 29.26336 | -62.98354 | 38043 ft | 579 kts | 103° |
| 2026-04-25 16:03 | 29.25625 | -62.89160 | 38036 ft | 581 kts | 103° |
| 2026-04-25 16:04 | 29.24907 | -62.79986 | 38036 ft | 582 kts | 103° |
| 2026-04-25 16:04 | 29.24180 | -62.70735 | 38034 ft | 583 kts | 103° |
| 2026-04-25 16:05 | 29.23445 | -62.61476 | 38036 ft | 585 kts | 103° |
| 2026-04-25 16:06 | 29.22326 | -62.47533 | 38035 ft | 586 kts | 103° |
| 2026-04-25 16:06 | 29.21569 | -62.38212 | 38035 ft | 587 kts | 103° |
| 2026-04-25 16:07 | 29.20810 | -62.28938 | 38036 ft | 588 kts | 103° |
| 2026-04-25 16:07 | 29.20169 | -62.21168 | 38036 ft | 589 kts | 103° |
| 2026-04-25 16:08 | 29.19312 | -62.10876 | 38038 ft | 590 kts | 103° |
| 2026-04-25 16:08 | 29.18608 | -62.02487 | 38035 ft | 590 kts | 103° |
| 2026-04-25 16:09 | 29.17816 | -61.93120 | 38039 ft | 591 kts | 102° |
| 2026-04-25 16:09 | 29.17018 | -61.83762 | 38036 ft | 591 kts | 102° |
| 2026-04-25 16:10 | 29.16216 | -61.74438 | 38034 ft | 592 kts | 102° |
| 2026-04-25 16:10 | 29.15402 | -61.65054 | 38029 ft | 592 kts | 102° |
| 2026-04-25 16:11 | 29.14583 | -61.55681 | 38037 ft | 592 kts | 102° |
| 2026-04-25 16:11 | 29.13756 | -61.46295 | 38033 ft | 593 kts | 102° |
| 2026-04-25 16:12 | 29.12922 | -61.36913 | 38036 ft | 593 kts | 102° |
| 2026-04-25 16:12 | 29.12080 | -61.27513 | 38033 ft | 593 kts | 102° |
| 2026-04-25 16:13 | 29.11232 | -61.18122 | 38034 ft | 594 kts | 102° |
| 2026-04-25 16:13 | 29.10378 | -61.08730 | 38034 ft | 594 kts | 102° |
| 2026-04-25 16:14 | 29.09521 | -60.99391 | 38035 ft | 594 kts | 102° |
| 2026-04-25 16:14 | 29.08652 | -60.89980 | 38033 ft | 594 kts | 102° |
| 2026-04-25 16:15 | 29.07776 | -60.80577 | 38034 ft | 595 kts | 101° |
| 2026-04-25 16:15 | 29.06893 | -60.71162 | 38030 ft | 595 kts | 101° |
| 2026-04-25 16:16 | 29.06002 | -60.61744 | 38036 ft | 595 kts | 101° |
| 2026-04-25 16:16 | 29.05106 | -60.52332 | 38034 ft | 596 kts | 101° |
| 2026-04-25 16:17 | 29.04208 | -60.42971 | 38030 ft | 596 kts | 101° |
| 2026-04-25 16:17 | 29.03296 | -60.33545 | 38034 ft | 596 kts | 101° |
| 2026-04-25 16:18 | 29.02378 | -60.24112 | 38034 ft | 597 kts | 101° |
| 2026-04-25 16:18 | 29.01452 | -60.14677 | 38033 ft | 597 kts | 101° |
| 2026-04-25 16:19 | 29.00526 | -60.05290 | 38035 ft | 597 kts | 101° |
| 2026-04-25 16:19 | 28.99912 | -59.95805 | 38034 ft | 602 kts | 94° |
| 2026-04-25 16:20 | 29.00128 | -59.81442 | 38031 ft | 604 kts | 92° |
| 2026-04-25 16:21 | 29.00339 | -59.67055 | 38035 ft | 603 kts | 93° |
| 2026-04-25 16:21 | 29.00415 | -59.57481 | 38033 ft | 603 kts | 93° |
| 2026-04-25 16:22 | 29.00478 | -59.47881 | 38028 ft | 604 kts | 93° |
| 2026-04-25 16:22 | 29.00540 | -59.38299 | 38025 ft | 604 kts | 93° |
| 2026-04-25 16:23 | 29.00600 | -59.28700 | 38026 ft | 603 kts | 93° |
| 2026-04-25 16:23 | 29.00654 | -59.19113 | 38025 ft | 603 kts | 93° |
| 2026-04-25 16:24 | 29.00700 | -59.09530 | 38026 ft | 603 kts | 93° |
| 2026-04-25 16:24 | 29.00740 | -58.99952 | 37953 ft | 603 kts | 94° |
| 2026-04-25 16:25 | 29.00772 | -58.90389 | 38028 ft | 602 kts | 94° |
| 2026-04-25 16:25 | 29.00796 | -58.80832 | 38014 ft | 602 kts | 94° |
| 2026-04-25 16:26 | 29.00814 | -58.71330 | 38028 ft | 602 kts | 94° |
| 2026-04-25 16:26 | 29.00826 | -58.61775 | 38028 ft | 602 kts | 94° |
| 2026-04-25 16:27 | 29.00831 | -58.52212 | 38018 ft | 602 kts | 94° |
| 2026-04-25 16:27 | 29.00829 | -58.42645 | 38022 ft | 602 kts | 94° |
| 2026-04-25 16:28 | 29.00820 | -58.33078 | 38011 ft | 602 kts | 94° |
| 2026-04-25 16:28 | 29.00805 | -58.23510 | 38014 ft | 602 kts | 94° |
| 2026-04-25 16:29 | 29.00783 | -58.13934 | 38027 ft | 603 kts | 94° |
| 2026-04-25 16:29 | 29.00754 | -58.04362 | 38025 ft | 603 kts | 94° |
| 2026-04-25 16:30 | 29.00718 | -57.94777 | 38019 ft | 603 kts | 94° |
| 2026-04-25 16:30 | 29.00676 | -57.85197 | 38022 ft | 603 kts | 94° |
| 2026-04-25 16:31 | 29.00627 | -57.75613 | 38018 ft | 603 kts | 94° |
| 2026-04-25 16:31 | 29.00570 | -57.66022 | 38015 ft | 604 kts | 94° |
| 2026-04-25 16:32 | 29.00508 | -57.56434 | 38013 ft | 604 kts | 94° |
| 2026-04-25 16:32 | 29.00438 | -57.46834 | 38014 ft | 604 kts | 94° |
| 2026-04-25 16:33 | 29.00361 | -57.37240 | 38017 ft | 604 kts | 94° |
| 2026-04-25 16:33 | 29.00278 | -57.27699 | 38021 ft | 604 kts | 94° |
| 2026-04-25 16:34 | 29.00188 | -57.18097 | 38011 ft | 605 kts | 94° |
| 2026-04-25 16:34 | 29.00091 | -57.08492 | 38011 ft | 605 kts | 94° |
| 2026-04-25 16:35 | 28.99990 | -56.98882 | 38017 ft | 605 kts | 94° |
| 2026-04-25 16:35 | 29.00125 | -56.89266 | 38018 ft | 607 kts | 91° |
| 2026-04-25 16:36 | 29.00449 | -56.79634 | 38012 ft | 607 kts | 91° |
| 2026-04-25 16:36 | 29.00749 | -56.69981 | 38013 ft | 607 kts | 91° |
| 2026-04-25 16:37 | 29.00987 | -56.60338 | 38016 ft | 607 kts | 91° |
| 2026-04-25 16:37 | 29.01196 | -56.50688 | 38012 ft | 608 kts | 91° |
| 2026-04-25 16:38 | 29.01399 | -56.41041 | 38016 ft | 608 kts | 91° |
| 2026-04-25 16:38 | 29.01602 | -56.31385 | 38013 ft | 608 kts | 91° |
| 2026-04-25 16:39 | 29.01802 | -56.21720 | 38005 ft | 608 kts | 91° |
| 2026-04-25 16:39 | 29.01994 | -56.12056 | 38007 ft | 608 kts | 91° |
| 2026-04-25 16:40 | 29.02178 | -56.02385 | 38006 ft | 609 kts | 91° |
| 2026-04-25 16:40 | 29.02355 | -55.92720 | 38006 ft | 609 kts | 91° |
| 2026-04-25 16:41 | 29.02526 | -55.83041 | 38009 ft | 609 kts | 91° |
| 2026-04-25 16:41 | 29.02768 | -55.68523 | 38004 ft | 610 kts | 91° |
| 2026-04-25 16:42 | 29.02922 | -55.58833 | 38004 ft | 610 kts | 91° |
| 2026-04-25 16:42 | 29.03068 | -55.49145 | 38006 ft | 610 kts | 91° |
| 2026-04-25 16:43 | 29.03207 | -55.39502 | 38003 ft | 611 kts | 91° |
| 2026-04-25 16:43 | 29.03340 | -55.29801 | 38002 ft | 611 kts | 91° |
| 2026-04-25 16:44 | 29.03466 | -55.20090 | 38007 ft | 611 kts | 91° |
| 2026-04-25 16:44 | 29.03584 | -55.10390 | 38005 ft | 611 kts | 91° |
| 2026-04-25 16:45 | 29.03696 | -55.00675 | 38001 ft | 612 kts | 91° |
| 2026-04-25 16:45 | 29.03802 | -54.90953 | 38002 ft | 612 kts | 91° |
| 2026-04-25 16:46 | 29.03900 | -54.81225 | 38006 ft | 612 kts | 91° |
| 2026-04-25 16:46 | 29.03961 | -54.74721 | 38003 ft | 612 kts | 91° |
| 2026-04-25 16:47 | 29.04076 | -54.61647 | 37999 ft | 613 kts | 91° |
| 2026-04-25 16:47 | 29.04108 | -54.57658 | 37996 ft | 613 kts | 91° |
| 2026-04-25 16:48 | 29.04182 | -54.47930 | 38007 ft | 613 kts | 91° |
| 2026-04-25 16:48 | 29.04249 | -54.38184 | 37999 ft | 613 kts | 91° |
| 2026-04-25 16:49 | 29.04309 | -54.28444 | 37997 ft | 613 kts | 91° |
| 2026-04-25 16:49 | 29.04363 | -54.18700 | 38003 ft | 613 kts | 91° |
| 2026-04-25 16:50 | 29.04409 | -54.08947 | 38001 ft | 614 kts | 92° |
| 2026-04-25 16:50 | 29.04448 | -53.99255 | 37999 ft | 614 kts | 91° |
| 2026-04-25 16:51 | 29.04480 | -53.89506 | 37991 ft | 614 kts | 92° |
| 2026-04-25 16:51 | 29.04497 | -53.82977 | 38001 ft | 614 kts | 92° |
| 2026-04-25 16:52 | 29.04523 | -53.69917 | 38013 ft | 614 kts | 92° |
| 2026-04-25 16:52 | 29.04534 | -53.60215 | 38006 ft | 614 kts | 92° |
| 2026-04-25 16:53 | 29.04537 | -53.47145 | 38010 ft | 615 kts | 92° |
| 2026-04-25 16:54 | 29.04530 | -53.35795 | 38006 ft | 615 kts | 92° |
| 2026-04-25 16:54 | 29.04519 | -53.27605 | 37999 ft | 615 kts | 92° |
| 2026-04-25 16:55 | 29.04499 | -53.17843 | 38007 ft | 615 kts | 92° |
| 2026-04-25 16:55 | 29.04473 | -53.08135 | 38002 ft | 615 kts | 92° |
| 2026-04-25 16:56 | 29.04439 | -52.98372 | 38002 ft | 615 kts | 92° |
| 2026-04-25 16:56 | 29.04398 | -52.88577 | 38002 ft | 615 kts | 92° |
| 2026-04-25 16:57 | 29.04350 | -52.78806 | 38003 ft | 615 kts | 92° |
| 2026-04-25 16:57 | 29.04295 | -52.69029 | 38006 ft | 615 kts | 92° |
| 2026-04-25 16:58 | 29.04232 | -52.59248 | 38003 ft | 616 kts | 92° |
| 2026-04-25 16:58 | 29.04163 | -52.49463 | 38006 ft | 616 kts | 92° |
| 2026-04-25 16:59 | 29.04087 | -52.39681 | 38004 ft | 616 kts | 92° |
| 2026-04-25 16:59 | 29.04003 | -52.29893 | 38004 ft | 616 kts | 92° |
| 2026-04-25 17:00 | 29.03912 | -52.20100 | 38004 ft | 616 kts | 92° |
| 2026-04-25 17:00 | 29.03815 | -52.10312 | 38004 ft | 616 kts | 92° |
| 2026-04-25 17:01 | 29.03710 | -52.00538 | 38007 ft | 616 kts | 92° |
| 2026-04-25 17:01 | 29.03598 | -51.90728 | 38004 ft | 616 kts | 92° |
| 2026-04-25 17:02 | 29.03478 | -51.80932 | 38005 ft | 617 kts | 92° |
| 2026-04-25 17:02 | 29.03352 | -51.71132 | 38005 ft | 617 kts | 92° |
| 2026-04-25 17:03 | 29.03219 | -51.61383 | 38006 ft | 617 kts | 92° |
| 2026-04-25 17:03 | 29.03079 | -51.51573 | 38004 ft | 617 kts | 92° |
| 2026-04-25 17:04 | 29.02931 | -51.41775 | 38001 ft | 617 kts | 92° |
| 2026-04-25 17:04 | 29.02776 | -51.31960 | 38009 ft | 618 kts | 92° |
| 2026-04-25 17:05 | 29.02614 | -51.22147 | 38016 ft | 618 kts | 92° |
| 2026-04-25 17:05 | 29.02357 | -51.07417 | 38008 ft | 618 kts | 92° |
| 2026-04-25 17:06 | 29.02177 | -50.97587 | 38010 ft | 619 kts | 92° |
| 2026-04-25 17:06 | 29.01990 | -50.87759 | 38006 ft | 619 kts | 92° |
| 2026-04-25 17:07 | 29.01795 | -50.77922 | 38009 ft | 619 kts | 92° |
| 2026-04-25 17:07 | 29.01593 | -50.68087 | 38009 ft | 619 kts | 92° |
| 2026-04-25 17:08 | 29.01384 | -50.58249 | 38010 ft | 620 kts | 93° |
| 2026-04-25 17:08 | 29.01168 | -50.48404 | 38004 ft | 620 kts | 93° |
| 2026-04-25 17:09 | 29.00944 | -50.38552 | 38008 ft | 620 kts | 93° |
| 2026-04-25 17:09 | 29.00713 | -50.28698 | 38013 ft | 620 kts | 93° |
| 2026-04-25 17:10 | 29.00475 | -50.18842 | 38013 ft | 621 kts | 93° |
| 2026-04-25 17:10 | 29.00230 | -50.08994 | 38011 ft | 621 kts | 93° |
| 2026-04-25 17:11 | 28.99979 | -49.99132 | 38017 ft | 621 kts | 92° |
| 2026-04-25 17:11 | 29.00005 | -49.89261 | 38018 ft | 622 kts | 89° |
| 2026-04-25 17:12 | 29.00284 | -49.79387 | 38017 ft | 622 kts | 89° |
| 2026-04-25 17:12 | 29.00537 | -49.69513 | 38015 ft | 622 kts | 89° |
| 2026-04-25 17:13 | 29.00685 | -49.61298 | 38019 ft | 622 kts | 89° |
| 2026-04-25 17:13 | 29.00846 | -49.49748 | 38021 ft | 622 kts | 90° |
| 2026-04-25 17:14 | 29.00978 | -49.39875 | 38018 ft | 622 kts | 90° |
| 2026-04-25 17:14 | 29.01110 | -49.30058 | 38021 ft | 622 kts | 90° |
| 2026-04-25 17:15 | 29.01240 | -49.20186 | 38019 ft | 622 kts | 90° |
| 2026-04-25 17:15 | 29.01363 | -49.10308 | 38017 ft | 622 kts | 90° |
| 2026-04-25 17:16 | 29.01476 | -49.00436 | 38023 ft | 622 kts | 90° |
| 2026-04-25 17:16 | 29.01582 | -48.90559 | 38023 ft | 622 kts | 90° |
| 2026-04-25 17:17 | 29.01681 | -48.80685 | 38023 ft | 621 kts | 90° |
| 2026-04-25 17:17 | 29.01773 | -48.70815 | 38024 ft | 621 kts | 90° |
| 2026-04-25 17:18 | 29.01858 | -48.60943 | 38026 ft | 621 kts | 90° |
| 2026-04-25 17:18 | 29.01935 | -48.51080 | 38029 ft | 621 kts | 90° |
| 2026-04-25 17:19 | 29.02006 | -48.41203 | 38034 ft | 621 kts | 90° |
| 2026-04-25 17:19 | 29.02069 | -48.31335 | 38035 ft | 621 kts | 90° |
| 2026-04-25 17:20 | 29.02125 | -48.21473 | 38034 ft | 621 kts | 90° |
| 2026-04-25 17:20 | 29.02173 | -48.11597 | 38032 ft | 620 kts | 90° |
| 2026-04-25 17:21 | 29.02214 | -48.01763 | 38026 ft | 617 kts | 90° |
| 2026-04-25 17:21 | 29.02248 | -47.91989 | 38032 ft | 614 kts | 90° |
| 2026-04-25 17:22 | 29.02271 | -47.83870 | 38042 ft | 614 kts | 90° |
| 2026-04-25 17:22 | 29.02295 | -47.72504 | 38042 ft | 616 kts | 90° |
| 2026-04-25 17:23 | 29.02308 | -47.62718 | 38042 ft | 617 kts | 90° |
| 2026-04-25 17:23 | 29.02313 | -47.52905 | 38047 ft | 617 kts | 90° |
| 2026-04-25 17:24 | 29.02312 | -47.43093 | 38049 ft | 617 kts | 90° |
| 2026-04-25 17:24 | 29.02303 | -47.33280 | 38047 ft | 618 kts | 90° |
| 2026-04-25 17:25 | 29.02288 | -47.23502 | 38052 ft | 619 kts | 90° |
| 2026-04-25 17:25 | 29.02264 | -47.13547 | 38048 ft | 619 kts | 90° |
| 2026-04-25 17:26 | 29.02235 | -47.03803 | 38052 ft | 619 kts | 90° |
| 2026-04-25 17:26 | 29.02197 | -46.93940 | 38052 ft | 620 kts | 90° |
| 2026-04-25 17:27 | 29.02153 | -46.84156 | 38049 ft | 620 kts | 90° |
| 2026-04-25 17:27 | 29.02119 | -46.77562 | 38052 ft | 620 kts | 90° |
| 2026-04-25 17:28 | 29.02042 | -46.64441 | 38056 ft | 621 kts | 90° |
| 2026-04-25 17:28 | 29.01977 | -46.54588 | 38056 ft | 621 kts | 90° |
| 2026-04-25 17:29 | 29.01903 | -46.44723 | 38057 ft | 621 kts | 90° |
| 2026-04-25 17:29 | 29.01823 | -46.34865 | 38058 ft | 621 kts | 90° |
| 2026-04-25 17:30 | 29.01735 | -46.25006 | 38058 ft | 621 kts | 90° |
| 2026-04-25 17:30 | 29.01640 | -46.15146 | 38060 ft | 621 kts | 90° |
| 2026-04-25 17:31 | 29.01538 | -46.05281 | 38063 ft | 621 kts | 90° |
| 2026-04-25 17:31 | 29.01429 | -45.95426 | 38064 ft | 621 kts | 90° |
| 2026-04-25 17:32 | 29.01312 | -45.85554 | 38065 ft | 620 kts | 90° |
| 2026-04-25 17:32 | 29.01189 | -45.75725 | 38055 ft | 616 kts | 90° |
| 2026-04-25 17:33 | 29.01060 | -45.65993 | 38055 ft | 611 kts | 90° |
| 2026-04-25 17:33 | 29.00924 | -45.56290 | 38071 ft | 612 kts | 90° |
| 2026-04-25 17:34 | 29.00781 | -45.46552 | 38079 ft | 613 kts | 90° |
| 2026-04-25 17:34 | 29.00632 | -45.36863 | 38072 ft | 614 kts | 90° |
| 2026-04-25 17:35 | 29.00474 | -45.27102 | 38070 ft | 615 kts | 90° |
| 2026-04-25 17:35 | 29.00310 | -45.17323 | 38076 ft | 616 kts | 90° |
| 2026-04-25 17:36 | 29.00108 | -45.07550 | 38071 ft | 616 kts | 93° |
| 2026-04-25 17:36 | 28.98913 | -44.97877 | 38074 ft | 615 kts | 104° |
| 2026-04-25 17:37 | 28.96502 | -44.88555 | 38079 ft | 611 kts | 113° |
| 2026-04-25 17:37 | 28.93500 | -44.79487 | 38075 ft | 611 kts | 114° |
| 2026-04-25 17:38 | 28.91484 | -44.73421 | 38072 ft | 611 kts | 114° |
| 2026-04-25 17:38 | 28.87548 | -44.61334 | 38075 ft | 611 kts | 113° |
| 2026-04-25 17:39 | 28.84618 | -44.52236 | 38070 ft | 611 kts | 113° |
| 2026-04-25 17:39 | 28.81685 | -44.43154 | 38080 ft | 610 kts | 113° |
| 2026-04-25 17:40 | 28.78739 | -44.34080 | 38078 ft | 610 kts | 113° |
| 2026-04-25 17:40 | 28.76281 | -44.26538 | 38083 ft | 611 kts | 113° |
| 2026-04-25 17:41 | 28.73319 | -44.17470 | 38082 ft | 611 kts | 113° |
| 2026-04-25 17:41 | 28.70351 | -44.08403 | 38078 ft | 611 kts | 113° |
| 2026-04-25 17:42 | 28.67376 | -43.99338 | 38091 ft | 611 kts | 113° |
| 2026-04-25 17:42 | 28.64394 | -43.90276 | 38094 ft | 611 kts | 113° |
| 2026-04-25 17:43 | 28.61405 | -43.81214 | 38088 ft | 611 kts | 113° |
| 2026-04-25 17:43 | 28.58405 | -43.72146 | 38083 ft | 611 kts | 113° |
| 2026-04-25 17:44 | 28.55422 | -43.63149 | 38088 ft | 611 kts | 113° |
| 2026-04-25 17:44 | 28.52416 | -43.54106 | 38085 ft | 611 kts | 113° |
| 2026-04-25 17:45 | 28.49893 | -43.46534 | 38086 ft | 611 kts | 113° |
| 2026-04-25 17:45 | 28.46385 | -43.36036 | 38092 ft | 611 kts | 113° |
| 2026-04-25 17:46 | 28.43360 | -43.27006 | 38091 ft | 612 kts | 113° |
| 2026-04-25 17:46 | 28.40327 | -43.17975 | 38095 ft | 612 kts | 113° |
| 2026-04-25 17:47 | 28.37289 | -43.08951 | 38095 ft | 612 kts | 113° |
| 2026-04-25 17:47 | 28.34244 | -42.99931 | 38094 ft | 612 kts | 113° |
| 2026-04-25 17:48 | 28.29666 | -42.86411 | 38098 ft | 612 kts | 113° |
| 2026-04-25 17:49 | 28.26608 | -42.77409 | 38098 ft | 612 kts | 113° |
| 2026-04-25 17:49 | 28.23544 | -42.68413 | 38096 ft | 612 kts | 113° |
| 2026-04-25 17:50 | 28.20475 | -42.59422 | 38099 ft | 612 kts | 113° |
| 2026-04-25 17:50 | 28.17399 | -42.50434 | 38101 ft | 612 kts | 113° |
| 2026-04-25 17:51 | 28.14317 | -42.41451 | 38098 ft | 611 kts | 113° |
| 2026-04-25 17:51 | 28.11230 | -42.32474 | 38105 ft | 611 kts | 113° |
| 2026-04-25 17:52 | 28.08136 | -42.23502 | 38102 ft | 611 kts | 113° |
| 2026-04-25 17:52 | 28.05040 | -42.14542 | 38101 ft | 611 kts | 113° |
| 2026-04-25 17:53 | 28.01938 | -42.05583 | 38109 ft | 611 kts | 113° |
| 2026-04-25 17:53 | 27.98567 | -41.96767 | 38106 ft | 608 kts | 121° |
| 2026-04-25 17:54 | 27.94468 | -41.88426 | 38111 ft | 607 kts | 123° |
| 2026-04-25 17:54 | 27.90288 | -41.80122 | 38099 ft | 607 kts | 123° |
| 2026-04-25 17:56 | 27.73796 | -41.46690 | 38103 ft | 608 kts | 122° |
| 2026-04-25 17:57 | 27.69728 | -41.38473 | 38105 ft | 608 kts | 122° |
| 2026-04-25 17:57 | 27.65596 | -41.30144 | 38110 ft | 608 kts | 122° |
| 2026-04-25 17:58 | 27.61461 | -41.21824 | 38105 ft | 608 kts | 122° |
| 2026-04-25 17:58 | 27.57348 | -41.13564 | 38107 ft | 608 kts | 122° |
| 2026-04-25 17:59 | 27.53203 | -41.05254 | 38109 ft | 608 kts | 122° |
| 2026-04-25 17:59 | 27.49053 | -40.96953 | 38106 ft | 608 kts | 122° |
| 2026-04-25 18:00 | 27.44896 | -40.88651 | 38108 ft | 608 kts | 122° |
| 2026-04-25 18:00 | 27.40735 | -40.80359 | 38103 ft | 609 kts | 122° |
| 2026-04-25 18:01 | 27.36565 | -40.72064 | 38122 ft | 609 kts | 122° |
| 2026-04-25 18:01 | 27.32393 | -40.63783 | 38119 ft | 609 kts | 122° |
| 2026-04-25 18:02 | 27.28216 | -40.55506 | 38095 ft | 609 kts | 122° |
| 2026-04-25 18:02 | 27.24031 | -40.47230 | 38114 ft | 609 kts | 122° |
| 2026-04-25 18:03 | 27.19843 | -40.38964 | 38115 ft | 609 kts | 122° |
| 2026-04-25 18:03 | 27.15651 | -40.30705 | 38108 ft | 609 kts | 122° |
| 2026-04-25 18:04 | 27.11453 | -40.22448 | 38102 ft | 609 kts | 122° |
| 2026-04-25 18:04 | 27.07249 | -40.14196 | 38108 ft | 609 kts | 122° |
| 2026-04-25 18:05 | 27.03041 | -40.05951 | 38114 ft | 609 kts | 122° |
| 2026-04-25 18:05 | 26.98842 | -39.97707 | 38110 ft | 609 kts | 121° |
| 2026-04-25 18:06 | 26.94857 | -39.89317 | 38110 ft | 610 kts | 120° |
| 2026-04-25 18:06 | 26.90985 | -39.80864 | 38110 ft | 610 kts | 119° |
| 2026-04-25 18:07 | 26.87075 | -39.72412 | 38104 ft | 610 kts | 120° |
| 2026-04-25 18:07 | 26.83124 | -39.64002 | 38109 ft | 610 kts | 120° |
| 2026-04-25 18:08 | 26.79157 | -39.55613 | 38112 ft | 610 kts | 120° |
| 2026-04-25 18:08 | 26.75210 | -39.47274 | 38111 ft | 610 kts | 120° |
| 2026-04-25 18:09 | 26.71237 | -39.38881 | 38104 ft | 610 kts | 120° |
| 2026-04-25 18:09 | 26.67263 | -39.30500 | 38105 ft | 610 kts | 120° |
| 2026-04-25 18:10 | 26.63282 | -39.22121 | 38099 ft | 610 kts | 120° |
| 2026-04-25 18:10 | 26.59297 | -39.13752 | 38108 ft | 610 kts | 120° |
| 2026-04-25 18:11 | 26.55309 | -39.05391 | 38104 ft | 610 kts | 120° |
| 2026-04-25 18:11 | 26.51474 | -38.97367 | 38101 ft | 610 kts | 120° |
| 2026-04-25 18:12 | 26.47306 | -38.88663 | 38104 ft | 610 kts | 120° |
| 2026-04-25 18:12 | 26.43298 | -38.80310 | 38102 ft | 610 kts | 120° |
| 2026-04-25 18:13 | 26.39287 | -38.71965 | 38104 ft | 610 kts | 120° |
| 2026-04-25 18:13 | 26.35272 | -38.63628 | 38102 ft | 611 kts | 120° |
| 2026-04-25 18:14 | 26.29234 | -38.51121 | 38102 ft | 610 kts | 120° |
| 2026-04-25 18:14 | 26.25203 | -38.42792 | 38103 ft | 610 kts | 120° |
| 2026-04-25 18:15 | 26.21169 | -38.34470 | 38100 ft | 610 kts | 120° |
| 2026-04-25 18:15 | 26.17135 | -38.26164 | 38103 ft | 610 kts | 120° |
| 2026-04-25 18:16 | 26.13090 | -38.17853 | 38101 ft | 610 kts | 120° |
| 2026-04-25 18:17 | 26.07018 | -38.05404 | 38102 ft | 610 kts | 120° |
| 2026-04-25 18:17 | 26.02964 | -37.97113 | 38103 ft | 610 kts | 120° |
| 2026-04-25 18:18 | 25.98907 | -37.88831 | 38103 ft | 610 kts | 120° |
| 2026-04-25 18:18 | 25.94844 | -37.80551 | 38102 ft | 610 kts | 120° |
| 2026-04-25 18:19 | 25.90775 | -37.72273 | 38100 ft | 610 kts | 120° |
| 2026-04-25 18:19 | 25.86701 | -37.64002 | 38104 ft | 610 kts | 120° |
| 2026-04-25 18:20 | 25.82625 | -37.55743 | 38103 ft | 610 kts | 120° |
| 2026-04-25 18:20 | 25.78569 | -37.47538 | 38102 ft | 610 kts | 120° |
| 2026-04-25 18:21 | 25.74482 | -37.39285 | 38101 ft | 610 kts | 120° |
| 2026-04-25 18:21 | 25.70392 | -37.31041 | 38105 ft | 610 kts | 120° |
| 2026-04-25 18:22 | 25.66295 | -37.22799 | 38106 ft | 610 kts | 120° |
| 2026-04-25 18:22 | 25.62198 | -37.14571 | 38109 ft | 610 kts | 120° |
| 2026-04-25 18:23 | 25.58093 | -37.06343 | 38110 ft | 610 kts | 120° |
| 2026-04-25 18:23 | 25.53989 | -36.98130 | 38105 ft | 609 kts | 120° |
| 2026-04-25 18:24 | 25.49879 | -36.89921 | 38103 ft | 609 kts | 120° |
| 2026-04-25 18:24 | 25.45764 | -36.81718 | 38110 ft | 609 kts | 120° |
| 2026-04-25 18:25 | 25.41651 | -36.73531 | 38111 ft | 609 kts | 121° |
| 2026-04-25 18:25 | 25.37532 | -36.65349 | 38110 ft | 609 kts | 121° |
| 2026-04-25 18:26 | 25.33410 | -36.57175 | 38112 ft | 609 kts | 121° |
| 2026-04-25 18:26 | 25.29282 | -36.49003 | 38111 ft | 609 kts | 121° |
| 2026-04-25 18:27 | 25.25845 | -36.42210 | 38110 ft | 609 kts | 121° |
| 2026-04-25 18:27 | 25.21709 | -36.34047 | 38113 ft | 609 kts | 121° |
| 2026-04-25 18:28 | 25.17567 | -36.25890 | 38111 ft | 609 kts | 121° |
| 2026-04-25 18:28 | 25.13424 | -36.17742 | 38109 ft | 609 kts | 121° |
| 2026-04-25 18:29 | 25.07195 | -36.05523 | 38120 ft | 609 kts | 121° |
| 2026-04-25 18:30 | 24.98880 | -35.89258 | 38111 ft | 609 kts | 121° |
| 2026-04-25 18:30 | 24.94712 | -35.81127 | 38118 ft | 609 kts | 121° |
| 2026-04-25 18:31 | 24.90546 | -35.73014 | 38115 ft | 609 kts | 121° |
| 2026-04-25 18:31 | 24.86397 | -35.64948 | 38117 ft | 609 kts | 121° |
| 2026-04-25 18:32 | 24.82221 | -35.56842 | 38117 ft | 609 kts | 121° |
| 2026-04-25 18:32 | 24.78037 | -35.48736 | 38114 ft | 608 kts | 121° |
| 2026-04-25 18:33 | 24.73852 | -35.40642 | 38117 ft | 608 kts | 121° |
| 2026-04-25 18:33 | 24.69665 | -35.32557 | 38115 ft | 608 kts | 121° |
| 2026-04-25 18:34 | 24.65473 | -35.24477 | 38120 ft | 608 kts | 121° |
| 2026-04-25 18:34 | 24.61278 | -35.16404 | 38121 ft | 608 kts | 121° |
| 2026-04-25 18:35 | 24.57078 | -35.08337 | 38115 ft | 608 kts | 121° |
| 2026-04-25 18:35 | 24.52872 | -35.00270 | 38118 ft | 608 kts | 121° |
| 2026-04-25 18:36 | 24.48665 | -34.92216 | 38120 ft | 608 kts | 121° |
| 2026-04-25 18:36 | 24.44454 | -34.84166 | 38121 ft | 608 kts | 121° |
| 2026-04-25 18:37 | 24.40247 | -34.76139 | 38123 ft | 608 kts | 121° |
| 2026-04-25 18:37 | 24.36029 | -34.68104 | 38122 ft | 608 kts | 121° |
| 2026-04-25 18:38 | 24.31803 | -34.60067 | 38122 ft | 607 kts | 121° |
| 2026-04-25 18:38 | 24.27578 | -34.52046 | 38121 ft | 607 kts | 121° |
| 2026-04-25 18:39 | 24.23353 | -34.44037 | 38128 ft | 607 kts | 122° |
| 2026-04-25 18:39 | 24.19122 | -34.36029 | 38119 ft | 607 kts | 122° |
| 2026-04-25 18:40 | 24.14889 | -34.28032 | 38133 ft | 607 kts | 122° |
| 2026-04-25 18:40 | 24.10647 | -34.20031 | 38120 ft | 607 kts | 122° |
| 2026-04-25 18:41 | 24.06406 | -34.12045 | 38116 ft | 607 kts | 122° |
| 2026-04-25 18:41 | 24.02164 | -34.04066 | 38132 ft | 607 kts | 122° |
| 2026-04-25 18:42 | 23.98618 | -33.97446 | 38120 ft | 606 kts | 123° |
| 2026-04-25 18:42 | 23.93432 | -33.88358 | 38122 ft | 606 kts | 124° |
| 2026-04-25 18:43 | 23.88871 | -33.80552 | 38128 ft | 605 kts | 124° |
| 2026-04-25 18:43 | 23.84397 | -33.72836 | 38125 ft | 605 kts | 124° |
| 2026-04-25 18:44 | 23.79916 | -33.65051 | 38123 ft | 605 kts | 124° |
| 2026-04-25 18:44 | 23.75441 | -33.57271 | 38120 ft | 605 kts | 124° |
| 2026-04-25 18:45 | 23.70959 | -33.49503 | 38123 ft | 605 kts | 124° |
| 2026-04-25 18:45 | 23.66469 | -33.41740 | 38125 ft | 605 kts | 124° |
| 2026-04-25 18:46 | 23.61982 | -33.33995 | 38119 ft | 604 kts | 124° |
| 2026-04-25 18:46 | 23.57489 | -33.26252 | 38121 ft | 604 kts | 124° |
| 2026-04-25 18:47 | 23.52994 | -33.18516 | 38121 ft | 604 kts | 124° |
| 2026-04-25 18:47 | 23.48491 | -33.10777 | 38122 ft | 604 kts | 124° |
| 2026-04-25 18:48 | 23.43991 | -33.03057 | 38119 ft | 603 kts | 124° |
| 2026-04-25 18:48 | 23.39490 | -32.95344 | 38118 ft | 603 kts | 124° |
| 2026-04-25 18:49 | 23.34986 | -32.87640 | 38118 ft | 603 kts | 124° |
| 2026-04-25 18:49 | 23.30480 | -32.79944 | 38114 ft | 603 kts | 124° |
| 2026-04-25 18:50 | 23.25974 | -32.72260 | 38115 ft | 603 kts | 124° |
| 2026-04-25 18:50 | 23.21465 | -32.64582 | 38114 ft | 602 kts | 125° |
| 2026-04-25 18:51 | 23.17716 | -32.58206 | 38119 ft | 602 kts | 125° |
| 2026-04-25 18:51 | 23.12469 | -32.49298 | 38118 ft | 602 kts | 125° |
| 2026-04-25 18:52 | 23.07926 | -32.41597 | 38115 ft | 602 kts | 125° |
| 2026-04-25 18:52 | 23.03434 | -32.33993 | 38109 ft | 602 kts | 125° |
| 2026-04-25 18:53 | 22.98913 | -32.26352 | 38111 ft | 601 kts | 125° |
| 2026-04-25 18:53 | 22.94390 | -32.18717 | 38114 ft | 601 kts | 125° |
| 2026-04-25 18:54 | 22.87604 | -32.07286 | 38110 ft | 601 kts | 125° |
| 2026-04-25 18:55 | 22.83075 | -31.99671 | 38106 ft | 600 kts | 125° |
| 2026-04-25 18:55 | 22.78554 | -31.92079 | 38115 ft | 600 kts | 125° |
| 2026-04-25 18:56 | 22.74029 | -31.84493 | 38108 ft | 599 kts | 125° |
| 2026-04-25 18:56 | 22.69503 | -31.76915 | 38104 ft | 599 kts | 125° |
| 2026-04-25 18:57 | 22.64975 | -31.69346 | 38099 ft | 598 kts | 125° |
| 2026-04-25 18:57 | 22.60481 | -31.61844 | 38113 ft | 598 kts | 125° |
| 2026-04-25 18:58 | 22.55955 | -31.54299 | 38115 ft | 597 kts | 125° |
| 2026-04-25 18:58 | 22.49169 | -31.43007 | 38111 ft | 597 kts | 126° |
| 2026-04-25 18:59 | 22.40109 | -31.27970 | 38108 ft | 596 kts | 126° |
| 2026-04-25 19:00 | 22.33315 | -31.16721 | 38100 ft | 596 kts | 126° |
| 2026-04-25 19:01 | 22.26513 | -31.05482 | 38101 ft | 595 kts | 126° |
| 2026-04-25 19:01 | 22.21981 | -30.98007 | 38098 ft | 595 kts | 126° |
| 2026-04-25 19:02 | 22.15183 | -30.86814 | 38098 ft | 594 kts | 126° |
| 2026-04-25 19:03 | 22.09883 | -30.78104 | 38096 ft | 594 kts | 126° |
| 2026-04-25 19:03 | 22.03847 | -30.68203 | 38095 ft | 593 kts | 126° |
| 2026-04-25 19:04 | 21.97047 | -30.57068 | 38093 ft | 592 kts | 126° |
| 2026-04-25 19:05 | 21.87984 | -30.42264 | 38086 ft | 592 kts | 126° |
| 2026-04-25 19:06 | 21.83449 | -30.34871 | 38090 ft | 591 kts | 126° |
| 2026-04-25 19:06 | 21.76679 | -30.23854 | 38089 ft | 590 kts | 126° |
| 2026-04-25 19:07 | 21.69888 | -30.12825 | 38082 ft | 589 kts | 126° |
| 2026-04-25 19:08 | 21.63212 | -30.02003 | 38086 ft | 588 kts | 126° |
| 2026-04-25 19:09 | 21.55665 | -29.89794 | 38083 ft | 587 kts | 126° |
| 2026-04-25 19:10 | 21.47360 | -29.76467 | 38083 ft | 585 kts | 128° |
| 2026-04-25 19:10 | 21.42654 | -29.69340 | 38080 ft | 584 kts | 129° |
| 2026-04-25 19:11 | 21.37917 | -29.62269 | 38080 ft | 584 kts | 128° |
| 2026-04-25 19:11 | 21.33202 | -29.55185 | 38081 ft | 583 kts | 128° |
| 2026-04-25 19:12 | 21.28501 | -29.48084 | 38077 ft | 583 kts | 128° |
| 2026-04-25 19:12 | 21.23811 | -29.40998 | 38079 ft | 583 kts | 128° |
| 2026-04-25 19:13 | 21.19112 | -29.33914 | 38077 ft | 582 kts | 128° |
| 2026-04-25 19:13 | 21.14436 | -29.26877 | 38075 ft | 582 kts | 128° |
| 2026-04-25 19:14 | 21.11291 | -29.22151 | 38074 ft | 581 kts | 128° |
| 2026-04-25 19:14 | 21.08905 | -29.18567 | 38072 ft | 581 kts | 128° |